Aérodrome :
LOGIN :

S'inscrire | Disclaimer

   EN    FR    IT 

 










Légende :    VFR   VFR Marginal   IFR   IFR Intensif   IFR Très Intensif
Visi : 
Plafond : 
>= 8 km
>= 3000ft
5 à 8 km
1000 à 3000 ft
1500m à 5 km
500 à 1000 ft
800 à 1500m
200 à 500 ft
< 800m
< 200 ft
Symboles :   Orages  Brouillard  Fortes neiges  Fortes précipitations  Vent > 20 kt
SIGMETs :   Divers  Orages  Givrage  Turbulence  Onde Orograph.  Cendres Volcan.







- Altitude de l'aérodrome : 157 ft
- Code IATA : LIL
- Voir les cartes d'approche


LFQQ - Lille Lesquin

DERNIER METAR :
  • 172300Z AUTO 20014KT 4200 -DZ BR OVC004 05/05 Q1019 TEMPO 2000 DZ BECMG 33012KT

METARs EXPIRÉS :
  • 172230Z AUTO 20014KT 5000 -RADZ BR OVC004 05/04 Q1019 TEMPO 2000 DZ BECMG 33012KT
  • 172200Z AUTO 19014KT 3900 -RA BR BKN005/// OVC009/// ///TCU 05/04 Q1020 TEMPO 2000 DZ OVC004 BECMG 33012KT
  • 172130Z AUTO 18016KT 6000 OVC005/// ///CB 04/04 Q1020 TEMPO 2000 DZ OVC004 BECMG 33012KT
  • 172100Z AUTO 18016KT 4900 -RA BR OVC005/// ///TCU 04/03 Q1021 TEMPO 2000 DZ OVC004
  • 172030Z AUTO 18015KT 4600 -RA BR OVC005/// ///TCU 04/03 Q1021 TEMPO 2000 DZ OVC004

TAF AMD TAF LFQQ
Valide du 17 à 21h jusqu'au 19 à 00h UTC


172125Z 1721/1824 21010KT 7000 OVC007
TEMPO 1721/1803 2000 DZ OVC004
BECMG 1723/1802 33012KT
BECMG 1803/1806 BKN020
TEMPO 1818/1821 1500 BR OVC004
BECMG 1821/1824 27005KT 0200 FG VV///
ATIS : +33 3 20 16 19 54
Pas de NOTAMs connus pour ce terrain.



MET'MAP, la Météo Aéronautique d'un coup d'oeil ! - Copyright ORBIFLY Décembre 2007 - Disclaimer

ORBIFLY MET'MAP TEAM :

Programmation & Développement : Alexandra Zaïnal
Conception & Développement : Baudouin d'Aumeries
Co-Programmation & Développement : Marc-Olivier Méhu
Soutien technique & logistique : Manuel Goepfert

Contact : metmap@orbifly.com




SOURCES & CREDITS :

   NOAA